Parsa — TCA3179 — position and weather

sailwx.info

Track history (hours):
 
Tides and Currents Weather Stations Pressure Air Temp Water Temp Dewpoint Dewpoint Depression Visibility Wind Speed Wind Dir Waves Ship Positions

Parsa

Last reported at 2018-Jul-16 03:56 UTC. Time now 2018-Jul-17 09:33 UTC.
Position N 37°04' E 003°59'.

Length 115 m; draft 8 m.

Type: Ship. MMSI: 271043873.

Date/timePositionNaut miles runAvg speedWind from/ knotsBaromVisibWave heightAir tempDewpointWater temp
2018-Jul-16 03:56N 37°04' E 003°59'1310.3
2018-Jul-16 02:43N 37°03' E 003°43'210.2
2018-Jul-16 02:29N 37°03' E 003°40'1310.4
2018-Jul-16 01:13N 37°02' E 003°24'210.5
2018-Jul-16 01:00N 37°01' E 003°21'6910.8
2018-Jul-15 18:37N 36°48' E 001°56'212.2
2018-Jul-15 18:30N 36°48' E 001°54'33911.7
2018-Jul-14 13:26N 35°57' W 005°02'612.8
2018-Jul-14 13:00N 35°56' W 005°09'612.1
2018-Jul-14 12:30N 35°55' W 005°16'2 4.8
2018-Jul-14 12:00N 35°54' W 005°18'0 0.0
2018-Jul-14 11:27N 35°54' W 005°18'0 0.0
2018-Jul-14 10:57N 35°54' W 005°18'0 0.0
2018-Jul-14 10:27N 35°54' W 005°18'0 0.0
2018-Jul-14 09:57N 35°54' W 005°18'0 0.0
2018-Jul-14 09:27N 35°54' W 005°18'0 0.4
2018-Jul-14 09:00N 35°54' W 005°19'1 2.0
2018-Jul-14 08:30N 35°55' W 005°19'2 3.1
2018-Jul-14 08:00N 35°56' W 005°19'0 0.4
2018-Jul-14 07:31N 35°56' W 005°19'0 0.7
2018-Jul-14 07:00N 35°56' W 005°18'1 1.5
2018-Jul-14 06:30N 35°56' W 005°17'3 6.9
2018-Jul-14 06:01N 35°57' W 005°21'611.6
2018-Jul-14 05:31N 35°56' W 005°29'611.7
2018-Jul-14 04:58N 35°55' W 005°36'712.6
2018-Jul-14 04:27N 35°54' W 005°44'  
2018-Jul-10 22:51N 32°17' W 009°19'0 0.0
2018-Jul-10 22:09N 32°17' W 009°19'0 0.0
2018-Jul-10 20:30N 32°17' W 009°19'0 0.0
2018-Jul-10 05:06N 32°17' W 009°19'0 0.0
2018-Jul-10 04:51N 32°17' W 009°19'0 0.0
2018-Jul-10 01:09N 32°17' W 009°19'0 0.0
2018-Jul-10 00:45N 32°17' W 009°19'0 0.0
2018-Jul-10 00:27N 32°17' W 009°19'28 2.1
2018-Jul-09 11:01N 32°45' W 009°14'013.2
2018-Jul-09 11:00N 32°45' W 009°14'7512.6
2018-Jul-09 05:05N 33°52' W 008°34'712.1
2018-Jul-09 04:30N 33°58' W 008°30'7112.2
2018-Jul-08 22:38N 35°01' W 007°50'212.4
2018-Jul-08 22:30N 35°03' W 007°50'3212.5
2018-Jul-08 19:55N 35°31' W 007°30'  
Track history (hours):
 
Tides and Currents Weather Stations Pressure Air Temp Water Temp Dewpoint Dewpoint Depression Visibility Wind Speed Wind Dir Waves Ship Positions

Parsa

Last reported at 2018-Jul-16 03:56 UTC. Time now 2018-Jul-17 09:33 UTC.
Position N 37°04' E 003°59'.

Length 115 m; draft 8 m.

Type: Ship. MMSI: 271043873.

Date/timePositionNaut miles runAvg speedWind from/ knotsBaromVisibWave heightAir tempDewpointWater temp
2018-Jul-16 03:56N 37°04' E 003°59'1310.3
2018-Jul-16 02:43N 37°03' E 003°43'210.2
2018-Jul-16 02:29N 37°03' E 003°40'1310.4
2018-Jul-16 01:13N 37°02' E 003°24'210.5
2018-Jul-16 01:00N 37°01' E 003°21'6910.8
2018-Jul-15 18:37N 36°48' E 001°56'212.2
2018-Jul-15 18:30N 36°48' E 001°54'33911.7
2018-Jul-14 13:26N 35°57' W 005°02'612.8
2018-Jul-14 13:00N 35°56' W 005°09'612.1
2018-Jul-14 12:30N 35°55' W 005°16'2 4.8
2018-Jul-14 12:00N 35°54' W 005°18'0 0.0
2018-Jul-14 11:27N 35°54' W 005°18'0 0.0
2018-Jul-14 10:57N 35°54' W 005°18'0 0.0
2018-Jul-14 10:27N 35°54' W 005°18'0 0.0
2018-Jul-14 09:57N 35°54' W 005°18'0 0.0
2018-Jul-14 09:27N 35°54' W 005°18'0 0.4
2018-Jul-14 09:00N 35°54' W 005°19'1 2.0
2018-Jul-14 08:30N 35°55' W 005°19'2 3.1
2018-Jul-14 08:00N 35°56' W 005°19'0 0.4
2018-Jul-14 07:31N 35°56' W 005°19'0 0.7
2018-Jul-14 07:00N 35°56' W 005°18'1 1.5
2018-Jul-14 06:30N 35°56' W 005°17'3 6.9
2018-Jul-14 06:01N 35°57' W 005°21'611.6
2018-Jul-14 05:31N 35°56' W 005°29'611.7
2018-Jul-14 04:58N 35°55' W 005°36'712.6
2018-Jul-14 04:27N 35°54' W 005°44'  
2018-Jul-10 22:51N 32°17' W 009°19'0 0.0
2018-Jul-10 22:09N 32°17' W 009°19'0 0.0
2018-Jul-10 20:30N 32°17' W 009°19'0 0.0
2018-Jul-10 05:06N 32°17' W 009°19'0 0.0
2018-Jul-10 04:51N 32°17' W 009°19'0 0.0
2018-Jul-10 01:09N 32°17' W 009°19'0 0.0
2018-Jul-10 00:45N 32°17' W 009°19'0 0.0
2018-Jul-10 00:27N 32°17' W 009°19'28 2.1
2018-Jul-09 11:01N 32°45' W 009°14'013.2
2018-Jul-09 11:00N 32°45' W 009°14'7512.6
2018-Jul-09 05:05N 33°52' W 008°34'712.1
2018-Jul-09 04:30N 33°58' W 008°30'7112.2
2018-Jul-08 22:38N 35°01' W 007°50'212.4
2018-Jul-08 22:30N 35°03' W 007°50'3212.5
2018-Jul-08 19:55N 35°31' W 007°30'  

Dump ship's entire track history